EDDG/FMO METAR and TAF weather

Enter ICAO airport designator
Station Type Date Time Source
EDDG METAR 2019/02/23 02:20 UTC NOAA

EDDG 230220Z VRB04KT CAVOK 03/02 Q1039 NOSIG


Station Type Date Time Source
EDDG Decoded METAR 2019/02/23 02:20 UTC NOAA

Muenster / Osnabrueck, Germany (EDDG) 52-08N 007-42E 53M
Feb 22, 2019 - 09:20 PM EST / 2019.02.23 0220 UTC
Wind: Variable at 5 MPH (4 KT):0
Visibility: greater than 7 mile(s):0
Temperature: 37 F (3 C)
Dew Point: 35 F (2 C)
Relative Humidity: 93%
Pressure (altimeter): 30.68 in. Hg (1039 hPa)
ob: EDDG 230220Z VRB04KT CAVOK 03/02 Q1039 NOSIG
cycle: 2

Station Type Date Time Source
EDDG TAF 2019/02/22 18:27 UTC NOAA

TAF TAF EDDG 221700Z 2218/2318 11005KT 9999 SCT025
BECMG 2315/2318 VRB03KT


Example: see airport list